createdAt,value
2017-05-05T00:00:03.424Z,1003.3
2017-05-05T00:01:13.687Z,1003.26
2017-05-05T00:02:23.945Z,1003.29
2017-05-05T00:03:33.887Z,1003.29
2017-05-05T00:04:44.146Z,1003.22
2017-05-05T00:05:54.408Z,1003.21
2017-05-05T00:07:04.666Z,1003.16
2017-05-05T00:08:14.615Z,1003.18
2017-05-05T00:09:24.876Z,1003.12
2017-05-05T00:10:35.135Z,1003.15
2017-05-05T00:11:45.398Z,1003.1
2017-05-05T00:12:55.357Z,1003.15
2017-05-05T00:14:05.302Z,1003.15
2017-05-05T00:15:15.246Z,1003.14
2017-05-05T00:16:25.503Z,1003.16
2017-05-05T00:17:35.765Z,1003.11
2017-05-05T00:18:46.022Z,1003.13
2017-05-05T00:19:56.297Z,1003.12
2017-05-05T00:21:06.242Z,1003.11
2017-05-05T00:22:16.500Z,1003.07
2017-05-05T00:23:26.451Z,1003.1
2017-05-05T00:24:36.398Z,1003.09
2017-05-05T00:25:46.670Z,1003.14
2017-05-05T00:26:56.613Z,1003.11
2017-05-05T00:28:06.873Z,1003.13
2017-05-05T00:29:17.133Z,1003.12
2017-05-05T00:30:27.391Z,1003.1
2017-05-05T00:31:37.658Z,1003.16
2017-05-05T00:32:47.916Z,1003.13
2017-05-05T00:33:58.185Z,1003.14
2017-05-05T00:35:08.142Z,1003.12
2017-05-05T00:36:18.409Z,1003.08
2017-05-05T00:37:28.670Z,1003.08
2017-05-05T00:38:38.939Z,1003.1
2017-05-05T00:39:49.205Z,1003.09
2017-05-05T00:40:59.469Z,1003.07
2017-05-05T00:42:09.729Z,1003.1
2017-05-05T00:43:19.994Z,1003.05
2017-05-05T00:44:29.961Z,1003.13
2017-05-05T00:45:39.914Z,1003.1
2017-05-05T00:46:50.175Z,1003.06
2017-05-05T00:48:00.437Z,1003.06
2017-05-05T00:49:10.393Z,1003.04
2017-05-05T00:50:20.335Z,1003.07
2017-05-05T00:51:30.596Z,1003.04
2017-05-05T00:52:40.856Z,1003.07
2017-05-05T00:53:51.119Z,1003.03
2017-05-05T00:55:01.379Z,1003
2017-05-05T00:56:11.324Z,1002.99
2017-05-05T00:57:21.594Z,1002.99
2017-05-05T00:58:31.541Z,1003
2017-05-05T00:59:41.807Z,1003.03
2017-05-05T01:00:52.062Z,1003.03
2017-05-05T01:02:02.324Z,1003
2017-05-05T01:03:12.271Z,1003.02
2017-05-05T01:04:22.530Z,1003
2017-05-05T01:05:32.468Z,1002.98
2017-05-05T01:06:42.734Z,1002.99
2017-05-05T01:07:53.020Z,1002.97
2017-05-05T01:09:02.975Z,1003.01
2017-05-05T01:10:13.234Z,1002.95
2017-05-05T01:11:23.493Z,1002.98
2017-05-05T01:12:33.755Z,1002.97
2017-05-05T01:13:43.696Z,1003
2017-05-05T01:14:53.958Z,1002.99
2017-05-05T01:16:04.221Z,1002.95
2017-05-05T01:17:14.480Z,1002.94
2017-05-05T01:18:24.439Z,1002.92
2017-05-05T01:19:34.709Z,1002.94
2017-05-05T01:20:44.970Z,1002.87
2017-05-05T01:21:55.227Z,1002.94
2017-05-05T01:23:05.483Z,1002.92
2017-05-05T01:24:15.744Z,1002.93
2017-05-05T01:25:26.010Z,1002.91
2017-05-05T01:26:36.266Z,1002.93
2017-05-05T01:27:46.213Z,1002.91
2017-05-05T01:28:56.480Z,1002.92
2017-05-05T01:30:06.429Z,1002.9
2017-05-05T01:31:16.067Z,1002.94
2017-05-05T01:32:26.018Z,1002.9
2017-05-05T01:33:36.282Z,1002.87
2017-05-05T01:34:46.235Z,1002.92
2017-05-05T01:35:56.495Z,1002.92
2017-05-05T01:37:06.759Z,1002.92
2017-05-05T01:38:17.025Z,1002.9
2017-05-05T01:39:26.658Z,1002.89
2017-05-05T01:40:36.920Z,1002.94
2017-05-05T01:41:47.174Z,1002.92
2017-05-05T01:42:57.436Z,1002.94
2017-05-05T01:44:07.700Z,1002.86
2017-05-05T01:45:17.963Z,1002.86
2017-05-05T01:46:28.218Z,1002.88
2017-05-05T01:47:38.480Z,1002.86
2017-05-05T01:48:48.741Z,1002.85
2017-05-05T01:49:59.013Z,1002.85
2017-05-05T01:51:08.956Z,1002.87
2017-05-05T01:52:19.217Z,1002.82
2017-05-05T01:53:29.161Z,1002.81
2017-05-05T01:54:39.111Z,1002.76
2017-05-05T01:55:49.376Z,1002.77
2017-05-05T01:56:59.637Z,1002.77
2017-05-05T01:58:09.587Z,1002.75
2017-05-05T01:59:19.547Z,1002.72
2017-05-05T02:00:29.812Z,1002.68
2017-05-05T02:01:40.084Z,1002.67
2017-05-05T02:02:50.347Z,1002.64
2017-05-05T02:04:00.294Z,1002.6
2017-05-05T02:05:10.551Z,1002.57
2017-05-05T02:06:20.814Z,1002.59
2017-05-05T02:07:31.075Z,1002.59
2017-05-05T02:08:41.344Z,1002.6
2017-05-05T02:09:51.604Z,1002.57
2017-05-05T02:11:01.876Z,1002.57
2017-05-05T02:12:11.822Z,1002.6
2017-05-05T02:13:22.086Z,1002.57
2017-05-05T02:14:32.097Z,1002.61
2017-05-05T02:15:42.355Z,1002.59
2017-05-05T02:16:52.619Z,1002.58
2017-05-05T02:18:02.877Z,1002.51
2017-05-05T02:19:13.191Z,1002.55
2017-05-05T02:20:23.454Z,1002.55
2017-05-05T02:21:33.711Z,1002.54
2017-05-05T02:22:43.969Z,1002.52
2017-05-05T02:23:54.228Z,1002.52
2017-05-05T02:25:04.180Z,1002.49
2017-05-05T02:26:14.449Z,1002.45
2017-05-05T02:27:24.083Z,1002.5
2017-05-05T02:28:34.034Z,1002.56
2017-05-05T02:29:44.304Z,1002.57
2017-05-05T02:30:54.562Z,1002.58
2017-05-05T02:32:04.822Z,1002.57
2017-05-05T02:33:14.770Z,1002.51
2017-05-05T02:34:25.039Z,1002.57
2017-05-05T02:35:35.305Z,1002.55
2017-05-05T02:36:45.568Z,1002.54
2017-05-05T02:37:55.828Z,1002.55
2017-05-05T02:39:06.092Z,1002.52
2017-05-05T02:40:16.360Z,1002.54
2017-05-05T02:41:26.621Z,1002.51
2017-05-05T02:42:36.575Z,1002.52
2017-05-05T02:43:46.840Z,1002.47
2017-05-05T02:44:56.791Z,1002.47
2017-05-05T02:46:06.424Z,1002.45
2017-05-05T02:47:16.687Z,1002.47
2017-05-05T02:48:26.957Z,1002.44
2017-05-05T02:49:37.217Z,1002.43
2017-05-05T02:50:47.481Z,1002.46
2017-05-05T02:51:57.736Z,1002.49
2017-05-05T02:53:07.686Z,1002.45
2017-05-05T02:54:17.946Z,1002.44
2017-05-05T02:55:28.201Z,1002.42
2017-05-05T02:56:38.465Z,1002.45
2017-05-05T02:57:48.417Z,1002.48
2017-05-05T02:58:58.693Z,1002.41
2017-05-05T03:00:08.640Z,1002.42
2017-05-05T03:01:18.596Z,1002.45
2017-05-05T03:02:28.232Z,1002.38
2017-05-05T03:03:38.499Z,1002.36
2017-05-05T03:04:48.759Z,1002.41
2017-05-05T03:05:59.023Z,1002.37
2017-05-05T03:07:09.287Z,1002.37
2017-05-05T03:08:19.550Z,1002.38
2017-05-05T03:09:29.194Z,1002.36
2017-05-05T03:10:39.453Z,1002.34
2017-05-05T03:11:49.720Z,1002.36
2017-05-05T03:12:59.978Z,1002.39
2017-05-05T03:14:10.242Z,1002.36
2017-05-05T03:15:20.504Z,1002.37
2017-05-05T03:16:30.449Z,1002.33
2017-05-05T03:17:40.713Z,1002.32
2017-05-05T03:18:50.982Z,1002.36
2017-05-05T03:20:00.929Z,1002.33
2017-05-05T03:21:10.879Z,1002.31
2017-05-05T03:22:21.144Z,1002.32
2017-05-05T03:23:31.411Z,1002.33
2017-05-05T03:24:41.360Z,1002.33
2017-05-05T03:25:51.625Z,1002.31
2017-05-05T03:27:01.888Z,1002.31
2017-05-05T03:28:12.153Z,1002.32
2017-05-05T03:29:22.102Z,1002.33
2017-05-05T03:30:32.052Z,1002.31
2017-05-05T03:31:42.318Z,1002.31
2017-05-05T03:32:52.591Z,1002.29
2017-05-05T03:34:02.858Z,1002.32
2017-05-05T03:35:12.491Z,1002.32
2017-05-05T03:36:22.444Z,1002.34
2017-05-05T03:37:32.707Z,1002.29
2017-05-05T03:38:42.975Z,1002.28
2017-05-05T03:39:53.240Z,1002.31
2017-05-05T03:41:03.188Z,1002.33
2017-05-05T03:42:12.830Z,1002.33
2017-05-05T03:43:23.085Z,1002.32
2017-05-05T03:44:33.033Z,1002.35
2017-05-05T03:45:42.992Z,1002.33
2017-05-05T03:46:53.251Z,1002.35
2017-05-05T03:48:03.201Z,1002.31
2017-05-05T03:49:12.517Z,1002.26
2017-05-05T03:50:22.786Z,1002.25
2017-05-05T03:51:33.050Z,1002.25
2017-05-05T03:52:43.312Z,1002.25
2017-05-05T03:53:53.581Z,1002.23
2017-05-05T03:55:03.540Z,1002.23
2017-05-05T03:56:13.496Z,1002.24
2017-05-05T03:57:23.767Z,1002.24
2017-05-05T03:58:34.028Z,1002.24
2017-05-05T03:59:44.290Z,1002.24
2017-05-05T04:00:54.552Z,1002.23
2017-05-05T04:02:04.810Z,1002.23
2017-05-05T04:03:15.097Z,1002.25
2017-05-05T04:04:25.040Z,1002.21
2017-05-05T04:05:34.991Z,1002.19
2017-05-05T04:06:44.938Z,1002.21
2017-05-05T04:07:55.196Z,1002.23
2017-05-05T04:09:05.454Z,1002.21
2017-05-05T04:10:15.085Z,1002.21
2017-05-05T04:11:25.348Z,1002.23
2017-05-05T04:12:35.610Z,1002.2
2017-05-05T04:13:45.869Z,1002.21
2017-05-05T04:14:56.130Z,1002.22
2017-05-05T04:16:06.085Z,1002.2
2017-05-05T04:17:16.043Z,1002.2
2017-05-05T04:18:26.304Z,1002.2
2017-05-05T04:19:36.567Z,1002.18
2017-05-05T04:20:46.832Z,1002.16
2017-05-05T04:21:57.097Z,1002.18
2017-05-05T04:23:07.361Z,1002.2
2017-05-05T04:24:17.649Z,1002.16
2017-05-05T04:25:27.913Z,1002.23
2017-05-05T04:26:38.205Z,1002.16
2017-05-05T04:27:48.467Z,1002.18
2017-05-05T04:28:58.413Z,1002.2
2017-05-05T04:30:08.363Z,1002.2
2017-05-05T04:31:18.623Z,1002.17
2017-05-05T04:32:28.881Z,1002.17
2017-05-05T04:33:38.825Z,1002.15
2017-05-05T04:34:49.087Z,1002.18
2017-05-05T04:35:59.351Z,1002.15
2017-05-05T04:37:09.296Z,1002.17
2017-05-05T04:38:19.566Z,1002.13
2017-05-05T04:39:29.826Z,1002.14
2017-05-05T04:40:40.084Z,1002.11
2017-05-05T04:41:50.342Z,1002.15
2017-05-05T04:43:00.295Z,1002.14
2017-05-05T04:44:10.241Z,1002.14
2017-05-05T04:45:20.191Z,1002.13
2017-05-05T04:46:30.455Z,1002.08
2017-05-05T04:47:40.712Z,1002.07
2017-05-05T04:48:50.986Z,1002.1
2017-05-05T04:50:01.253Z,1002.08
2017-05-05T04:51:11.516Z,1002.05
2017-05-05T04:52:21.775Z,1002.04
2017-05-05T04:53:32.044Z,1002.04
2017-05-05T04:54:42.311Z,1002.05
2017-05-05T04:55:52.593Z,1002
2017-05-05T04:57:02.850Z,1002
2017-05-05T04:58:12.805Z,1001.98
2017-05-05T04:59:22.440Z,1001.93
2017-05-05T05:00:32.706Z,1001.97
2017-05-05T05:01:42.664Z,1001.95
2017-05-05T05:02:52.959Z,1001.96
2017-05-05T05:04:03.223Z,1001.96
2017-05-05T05:05:13.181Z,1001.93
2017-05-05T05:06:23.438Z,1001.91
2017-05-05T05:07:33.394Z,1001.89
2017-05-05T05:08:43.658Z,1001.89
2017-05-05T05:09:53.923Z,1001.81
2017-05-05T05:11:04.181Z,1001.84
2017-05-05T05:12:14.442Z,1001.83
2017-05-05T05:13:24.389Z,1001.85
2017-05-05T05:14:34.948Z,1001.87
2017-05-05T05:15:45.212Z,1001.87
2017-05-05T05:16:55.472Z,1001.84
2017-05-05T05:18:05.734Z,1001.86
2017-05-05T05:19:16.001Z,1001.86
2017-05-05T05:20:26.271Z,1001.91
2017-05-05T05:21:36.538Z,1001.88
2017-05-05T05:22:46.803Z,1001.87
2017-05-05T05:23:57.095Z,1001.85
2017-05-05T05:25:07.385Z,1001.86
2017-05-05T05:26:17.893Z,1001.86
2017-05-05T05:27:28.160Z,1001.83
2017-05-05T05:28:38.121Z,1001.84
2017-05-05T05:29:48.425Z,1001.84
2017-05-05T05:30:58.689Z,1001.79
2017-05-05T05:32:10.953Z,1001.81
2017-05-05T05:33:21.217Z,1001.85
2017-05-05T05:34:31.486Z,1001.78
2017-05-05T05:35:41.772Z,1001.8
2017-05-05T05:36:51.400Z,1001.76
2017-05-05T05:38:01.655Z,1001.8
2017-05-05T05:39:11.916Z,1001.8
2017-05-05T05:40:21.861Z,1001.76
2017-05-05T05:41:31.817Z,1001.75
2017-05-05T05:42:42.081Z,1001.77
2017-05-05T05:43:52.343Z,1001.69
2017-05-05T05:45:02.605Z,1001.72
2017-05-05T05:46:12.550Z,1001.74
2017-05-05T05:47:22.817Z,1001.73
2017-05-05T05:48:33.081Z,1001.7
2017-05-05T05:49:43.347Z,1001.67
2017-05-05T05:50:53.618Z,1001.7
2017-05-05T05:52:03.563Z,1001.68
2017-05-05T05:53:13.203Z,1001.66
2017-05-05T05:54:23.470Z,1001.68
2017-05-05T05:55:33.738Z,1001.66
2017-05-05T05:56:43.686Z,1001.64
2017-05-05T05:57:53.951Z,1001.63
2017-05-05T05:59:04.247Z,1001.64
2017-05-05T06:00:14.510Z,1001.65
2017-05-05T06:01:24.782Z,1001.6
2017-05-05T06:02:35.047Z,1001.56
2017-05-05T06:03:45.310Z,1001.65
2017-05-05T06:04:55.578Z,1001.61
2017-05-05T06:06:05.522Z,1001.61
2017-05-05T06:07:15.472Z,1001.62
2017-05-05T06:08:25.733Z,1001.61
2017-05-05T06:09:36.004Z,1001.59
2017-05-05T06:10:45.950Z,1001.65
2017-05-05T06:11:56.206Z,1001.62
2017-05-05T06:13:06.168Z,1001.64
2017-05-05T06:14:16.435Z,1001.62
2017-05-05T06:15:26.696Z,1001.59
2017-05-05T06:16:36.965Z,1001.61
2017-05-05T06:17:47.238Z,1001.67
2017-05-05T06:18:57.506Z,1001.64
2017-05-05T06:20:07.459Z,1001.63
2017-05-05T06:21:17.412Z,1001.57
2017-05-05T06:22:27.371Z,1001.6
2017-05-05T06:23:37.634Z,1001.6
2017-05-05T06:24:47.898Z,1001.6
2017-05-05T06:25:57.848Z,1001.64
2017-05-05T06:27:08.110Z,1001.59
2017-05-05T06:28:18.058Z,1001.59
2017-05-05T06:29:28.322Z,1001.6
2017-05-05T06:30:38.265Z,1001.58
2017-05-05T06:31:48.526Z,1001.55
2017-05-05T06:32:58.791Z,1001.57
2017-05-05T06:34:09.061Z,1001.55
2017-05-05T06:35:19.324Z,1001.59
2017-05-05T06:36:29.613Z,1001.57
2017-05-05T06:37:39.871Z,1001.58
2017-05-05T06:38:50.138Z,1001.55
2017-05-05T06:40:00.400Z,1001.53
2017-05-05T06:41:10.350Z,1001.56
2017-05-05T06:42:20.620Z,1001.51
2017-05-05T06:43:30.882Z,1001.59
2017-05-05T06:44:40.838Z,1001.55
2017-05-05T06:45:51.162Z,1001.52
2017-05-05T06:47:01.424Z,1001.5
2017-05-05T06:48:11.717Z,1001.54
2017-05-05T06:49:21.682Z,1001.53
2017-05-05T06:50:31.628Z,1001.53
2017-05-05T06:51:41.890Z,1001.52
2017-05-05T06:52:52.147Z,1001.51
2017-05-05T06:54:02.098Z,1001.52
2017-05-05T06:55:12.369Z,1001.53
2017-05-05T06:56:22.323Z,1001.43
2017-05-05T06:57:32.595Z,1001.47
2017-05-05T06:58:42.853Z,1001.46
2017-05-05T06:59:53.124Z,1001.42
2017-05-05T07:01:03.390Z,1001.45
2017-05-05T07:02:13.661Z,1001.43
2017-05-05T07:03:23.961Z,1001.41
2017-05-05T07:04:34.237Z,1001.38
2017-05-05T07:05:44.502Z,1001.37
2017-05-05T07:06:54.451Z,1001.37
2017-05-05T07:08:04.400Z,1001.36
2017-05-05T07:09:14.666Z,1001.31
2017-05-05T07:10:24.610Z,1001.38
2017-05-05T07:11:34.878Z,1001.37
2017-05-05T07:12:45.142Z,1001.38
2017-05-05T07:13:55.404Z,1001.4
2017-05-05T07:15:05.352Z,1001.37
2017-05-05T07:16:15.010Z,1001.37
2017-05-05T07:17:25.270Z,1001.42
2017-05-05T07:18:35.528Z,1001.38
2017-05-05T07:19:45.480Z,1001.36
2017-05-05T07:20:55.745Z,1001.39
2017-05-05T07:22:06.020Z,1001.35
2017-05-05T07:23:15.967Z,1001.34
2017-05-05T07:24:26.236Z,1001.35
2017-05-05T07:25:36.509Z,1001.34
2017-05-05T07:26:46.780Z,1001.31
2017-05-05T07:27:56.748Z,1001.24
2017-05-05T07:29:06.709Z,1001.25
2017-05-05T07:30:16.990Z,1001.19
2017-05-05T07:31:26.943Z,1001.18
2017-05-05T07:32:36.896Z,1001.2
2017-05-05T07:33:47.167Z,1001.22
2017-05-05T07:34:57.435Z,1001.21
2017-05-05T07:36:07.383Z,1001.14
2017-05-05T07:37:17.028Z,1001.15
2017-05-05T07:38:26.989Z,1001.14
2017-05-05T07:39:37.268Z,1001.12
2017-05-05T07:40:47.532Z,1001.13
2017-05-05T07:41:57.794Z,1001.15
2017-05-05T07:43:07.423Z,1001.2
2017-05-05T07:44:17.386Z,1001.17
2017-05-05T07:45:27.645Z,1001.13
2017-05-05T07:46:37.592Z,1001.16
2017-05-05T07:47:47.852Z,1001.11
2017-05-05T07:48:58.117Z,1001.12
2017-05-05T07:50:07.750Z,1001.06
2017-05-05T07:51:17.702Z,1001.05
2017-05-05T07:52:27.648Z,1001.04
2017-05-05T07:53:37.596Z,1001.08
2017-05-05T07:54:47.862Z,1001.03
2017-05-05T07:55:58.215Z,1001
2017-05-05T07:57:07.944Z,1001.04
2017-05-05T07:58:17.580Z,1001.02
2017-05-05T07:59:27.526Z,1000.99
2017-05-05T08:00:37.791Z,1000.93
2017-05-05T08:01:48.057Z,1000.98
2017-05-05T08:02:58.330Z,1000.94
2017-05-05T08:04:08.606Z,1000.92
2017-05-05T08:05:18.873Z,1000.94
2017-05-05T08:06:29.145Z,1000.91
2017-05-05T08:07:39.409Z,1000.9
2017-05-05T08:08:49.687Z,1000.87
2017-05-05T08:09:59.332Z,1000.92
2017-05-05T08:11:09.286Z,1000.8
2017-05-05T08:12:19.232Z,1000.88
2017-05-05T08:13:29.497Z,1000.78
2017-05-05T08:14:39.774Z,1000.77
2017-05-05T08:15:50.039Z,1000.75
2017-05-05T08:17:00.011Z,1000.75
2017-05-05T08:18:09.963Z,1000.77
2017-05-05T08:19:19.911Z,1000.71
2017-05-05T08:20:30.177Z,1000.73
2017-05-05T08:21:40.467Z,1000.72
2017-05-05T08:22:50.730Z,1000.7
2017-05-05T08:24:00.993Z,1000.68
2017-05-05T08:25:11.257Z,1000.72
2017-05-05T08:26:21.521Z,1000.67
2017-05-05T08:27:31.472Z,1000.67
2017-05-05T08:28:41.741Z,1000.71
2017-05-05T08:29:52.012Z,1000.74
2017-05-05T08:31:01.969Z,1000.6
2017-05-05T08:32:12.236Z,1000.62
2017-05-05T08:33:22.185Z,1000.59
2017-05-05T08:34:32.135Z,1000.65
2017-05-05T08:35:42.096Z,1000.61
2017-05-05T08:36:52.361Z,1000.6
2017-05-05T08:38:02.619Z,1000.59
2017-05-05T08:39:12.255Z,1000.6
2017-05-05T08:40:22.527Z,1000.57
2017-05-05T08:41:32.819Z,1000.51
2017-05-05T08:42:43.086Z,1000.49
2017-05-05T08:43:53.038Z,1000.57
2017-05-05T08:45:03.298Z,1000.5
2017-05-05T08:46:12.933Z,1000.46
2017-05-05T08:47:22.567Z,1000.39
2017-05-05T08:48:32.836Z,1000.43
2017-05-05T08:49:43.104Z,1000.5
2017-05-05T08:50:53.058Z,1000.35
2017-05-05T08:52:03.319Z,1000.38
2017-05-05T08:53:12.962Z,1000.4
2017-05-05T08:54:22.917Z,1000.32
2017-05-05T08:55:33.184Z,1000.3
2017-05-05T08:56:43.451Z,1000.29
2017-05-05T08:57:53.727Z,1000.29
2017-05-05T08:59:03.372Z,1000.38
2017-05-05T09:00:12.696Z,1000.28
2017-05-05T09:01:22.968Z,1000.28
2017-05-05T09:02:33.238Z,1000.24
2017-05-05T09:03:43.503Z,1000.24
2017-05-05T09:04:53.769Z,1000.26
2017-05-05T09:06:03.734Z,1000.25
2017-05-05T09:07:13.688Z,1000.21
2017-05-05T09:08:23.951Z,1000.21
2017-05-05T09:09:34.213Z,1000.18
2017-05-05T09:10:44.476Z,1000.17
2017-05-05T09:11:54.747Z,1000.14
2017-05-05T09:13:05.025Z,1000.17
2017-05-05T09:14:14.974Z,1000.1
2017-05-05T09:15:24.933Z,1000.14
2017-05-05T09:16:34.883Z,1000.09
2017-05-05T09:17:45.155Z,1000.06
2017-05-05T09:18:55.422Z,1000.03
2017-05-05T09:20:05.379Z,1000.07
2017-05-05T09:21:15.644Z,1000.03
2017-05-05T09:22:25.282Z,1000.01
2017-05-05T09:23:35.572Z,999.95
2017-05-05T09:24:45.848Z,999.97
2017-05-05T09:25:56.118Z,1000.02
2017-05-05T09:27:06.078Z,999.92
2017-05-05T09:28:16.354Z,999.94
2017-05-05T09:29:26.628Z,999.92
2017-05-05T09:30:36.894Z,999.9
2017-05-05T09:31:47.155Z,999.89
2017-05-05T09:32:57.419Z,999.91
2017-05-05T09:34:07.692Z,999.89
2017-05-05T09:35:17.653Z,999.89
2017-05-05T09:36:27.627Z,999.85
2017-05-05T09:37:37.892Z,999.9
2017-05-05T09:38:48.159Z,999.87
2017-05-05T09:39:58.427Z,999.87
2017-05-05T09:41:08.385Z,999.81
2017-05-05T09:42:18.023Z,999.81
2017-05-05T09:43:28.297Z,999.76
2017-05-05T09:44:38.591Z,999.75
2017-05-05T09:45:48.851Z,999.71
2017-05-05T09:46:59.117Z,999.71
2017-05-05T09:48:09.387Z,999.73
2017-05-05T09:49:19.650Z,999.65
2017-05-05T09:50:29.918Z,999.69
2017-05-05T09:51:39.867Z,999.67
2017-05-05T09:52:50.131Z,999.6
2017-05-05T09:53:59.771Z,999.62
2017-05-05T09:55:10.060Z,999.64
2017-05-05T09:56:20.321Z,999.56
2017-05-05T09:57:30.587Z,999.59
2017-05-05T09:58:40.539Z,999.49
2017-05-05T09:59:50.806Z,999.56
2017-05-05T10:01:01.078Z,999.49
2017-05-05T10:02:11.036Z,999.57
2017-05-05T10:03:21.306Z,999.54
2017-05-05T10:04:31.576Z,999.47
2017-05-05T10:05:41.844Z,999.4
2017-05-05T10:06:52.108Z,999.41
2017-05-05T10:08:02.056Z,999.38
2017-05-05T10:09:12.325Z,999.33
2017-05-05T10:10:22.595Z,999.34
2017-05-05T10:11:32.240Z,999.35
2017-05-05T10:12:42.200Z,999.3
2017-05-05T10:13:52.157Z,999.3
2017-05-05T10:15:02.427Z,999.29
2017-05-05T10:16:12.384Z,999.32
2017-05-05T10:17:22.337Z,999.3
2017-05-05T10:18:32.616Z,999.3
2017-05-05T10:19:42.576Z,999.32
2017-05-05T10:20:52.858Z,999.31
2017-05-05T10:22:02.562Z,999.32
2017-05-05T10:23:12.514Z,999.3
2017-05-05T10:24:22.468Z,999.29
2017-05-05T10:25:32.737Z,999.26
2017-05-05T10:26:43.001Z,999.27
2017-05-05T10:27:53.273Z,999.22
2017-05-05T10:29:03.545Z,999.24
2017-05-05T10:30:13.514Z,999.21
2017-05-05T10:31:23.789Z,999.22
2017-05-05T10:32:33.770Z,999.16
2017-05-05T10:33:43.725Z,999.16
2017-05-05T10:34:54.003Z,999.13
2017-05-05T10:36:03.961Z,999.13
2017-05-05T10:37:14.226Z,999.13
2017-05-05T10:38:24.500Z,999.18
2017-05-05T10:39:34.458Z,999.17
2017-05-05T10:40:44.741Z,999.19
2017-05-05T10:41:55.006Z,999.19
2017-05-05T10:43:04.962Z,999.12
2017-05-05T10:44:14.917Z,999.17
2017-05-05T10:45:24.879Z,999.14
2017-05-05T10:46:35.148Z,999.11
2017-05-05T10:47:45.414Z,999.15
2017-05-05T10:48:55.711Z,999.15
2017-05-05T10:50:05.351Z,999.12
2017-05-05T10:51:14.993Z,999.11
2017-05-05T10:52:25.269Z,999.08
2017-05-05T10:53:35.224Z,999.06
2017-05-05T10:54:45.493Z,999.05
2017-05-05T10:55:55.766Z,998.99
2017-05-05T10:57:05.720Z,998.98
2017-05-05T10:58:15.674Z,998.96
2017-05-05T10:59:25.951Z,998.85
2017-05-05T11:00:36.220Z,998.89
2017-05-05T11:01:46.175Z,998.92
2017-05-05T11:02:56.448Z,998.94
2017-05-05T11:04:06.724Z,998.95
2017-05-05T11:05:16.679Z,998.88
2017-05-05T11:06:26.634Z,998.79
2017-05-05T11:07:36.909Z,998.83
2017-05-05T11:08:47.195Z,998.87
2017-05-05T11:09:57.476Z,998.81
2017-05-05T11:11:07.749Z,998.81
2017-05-05T11:12:17.704Z,998.8
2017-05-05T11:13:27.975Z,998.79
2017-05-05T11:14:38.254Z,998.89
2017-05-05T11:15:48.214Z,998.81
2017-05-05T11:16:58.485Z,998.76
2017-05-05T11:18:08.441Z,998.77
2017-05-05T11:19:18.085Z,998.81
2017-05-05T11:20:28.350Z,998.75
2017-05-05T11:21:38.621Z,998.8
2017-05-05T11:22:48.886Z,998.84
2017-05-05T11:23:59.186Z,998.82
2017-05-05T11:25:09.139Z,998.88
2017-05-05T11:26:18.855Z,999.11
2017-05-05T11:27:29.126Z,999.11
2017-05-05T11:28:39.400Z,999.16
2017-05-05T11:29:49.670Z,999.11
2017-05-05T11:30:59.634Z,999.11
2017-05-05T11:32:09.593Z,999.06
2017-05-05T11:33:19.876Z,999.06
2017-05-05T11:34:30.182Z,999.06
2017-05-05T11:35:40.141Z,999.03
2017-05-05T11:36:50.106Z,999.03
2017-05-05T11:38:00.067Z,999.11
2017-05-05T11:39:10.373Z,999.08
2017-05-05T11:40:20.652Z,999.07
2017-05-05T11:41:30.610Z,999.11
2017-05-05T11:42:40.884Z,999.2
2017-05-05T11:43:51.167Z,999.22
2017-05-05T11:45:01.468Z,999.24
2017-05-05T11:46:11.771Z,999.21
2017-05-05T11:47:21.744Z,999.26
2017-05-05T11:48:31.401Z,999.29
2017-05-05T11:49:41.372Z,999.15
2017-05-05T11:50:51.342Z,999.18
2017-05-05T11:52:01.625Z,999.11
2017-05-05T11:53:11.904Z,999.16
2017-05-05T11:54:22.193Z,999.14
2017-05-05T11:55:32.156Z,999.25
2017-05-05T11:56:42.125Z,999.17
2017-05-05T11:57:52.410Z,999.17
2017-05-05T11:59:02.703Z,999.21
2017-05-05T12:00:12.993Z,999.29
2017-05-05T12:01:23.274Z,999.26
2017-05-05T12:02:33.241Z,999.33
2017-05-05T12:03:43.216Z,999.4
2017-05-05T12:04:53.507Z,999.5
2017-05-05T12:06:03.481Z,999.52
2017-05-05T12:07:12.819Z,999.52
2017-05-05T12:08:22.480Z,999.58
2017-05-05T12:09:31.818Z,999.75
2017-05-05T12:10:42.107Z,999.72
2017-05-05T12:11:52.077Z,999.74
2017-05-05T12:13:02.364Z,999.73
2017-05-05T12:14:12.331Z,999.7
2017-05-05T12:15:22.300Z,999.7
2017-05-05T12:16:31.949Z,999.77
2017-05-05T12:17:42.234Z,999.72
2017-05-05T12:18:52.521Z,999.7
2017-05-05T12:20:02.806Z,999.68
2017-05-05T12:21:12.463Z,999.79
2017-05-05T12:22:22.135Z,1000.07
2017-05-05T12:23:32.115Z,1000.13
2017-05-05T12:24:42.399Z,1000.19
2017-05-05T12:25:52.376Z,1000.23
2017-05-05T12:27:02.665Z,1000.14
2017-05-05T12:28:12.956Z,999.97
2017-05-05T12:29:23.240Z,999.92
2017-05-05T12:30:33.523Z,999.93
2017-05-05T12:31:43.805Z,1000.24
2017-05-05T12:32:53.773Z,1000.1
2017-05-05T12:34:03.749Z,999.97
2017-05-05T12:35:14.031Z,999.83
2017-05-05T12:36:23.372Z,999.35
2017-05-05T12:37:33.669Z,998.78
2017-05-05T12:38:43.955Z,998.75
2017-05-05T12:39:53.928Z,999.17
2017-05-05T12:41:03.905Z,999.29
2017-05-05T12:42:14.182Z,999.05
2017-05-05T12:43:24.462Z,998.95
2017-05-05T12:44:34.121Z,998.91
2017-05-05T12:45:44.096Z,998.89
2017-05-05T12:46:54.071Z,998.98
2017-05-05T12:48:04.356Z,999
2017-05-05T12:49:14.663Z,999.05
2017-05-05T12:50:24.950Z,999.05
2017-05-05T12:51:34.916Z,999.26
2017-05-05T12:52:45.199Z,999.49
2017-05-05T12:53:55.490Z,999.71
2017-05-05T12:55:05.773Z,999.79
2017-05-05T12:56:16.053Z,1000.02
2017-05-05T12:57:26.340Z,1000.35
2017-05-05T12:58:36.311Z,1000.66
2017-05-05T12:59:46.284Z,1000.89
2017-05-05T13:00:56.246Z,1000.97
2017-05-05T13:02:06.531Z,1000.98
2017-05-05T13:03:16.505Z,1000.96
2017-05-05T13:04:26.791Z,1000.6
2017-05-05T13:05:37.084Z,1000.75
2017-05-05T13:06:47.055Z,1000.11
2017-05-05T13:07:57.339Z,1000.05
2017-05-05T13:09:07.312Z,1000.19
2017-05-05T13:10:17.285Z,999.86
2017-05-05T13:11:27.574Z,999.87
2017-05-05T13:12:37.881Z,999.75
2017-05-05T13:13:48.166Z,999.71
2017-05-05T13:14:57.825Z,999.6
2017-05-05T13:16:08.116Z,999.49
2017-05-05T13:17:18.405Z,999.61
2017-05-05T13:18:28.690Z,999.73
2017-05-05T13:19:38.978Z,999.49
2017-05-05T13:20:49.262Z,999.41
2017-05-05T13:21:59.238Z,999.2
2017-05-05T13:23:09.209Z,999.04
2017-05-05T13:24:19.498Z,998.94
2017-05-05T13:25:29.794Z,999.01
2017-05-05T13:26:40.084Z,998.93
2017-05-05T13:27:50.371Z,998.87
2017-05-05T13:29:00.658Z,998.65
2017-05-05T13:30:10.626Z,998.63
2017-05-05T13:31:20.913Z,998.6
2017-05-05T13:32:31.199Z,998.49
2017-05-05T13:33:41.501Z,998.49
2017-05-05T13:34:51.803Z,998.24
2017-05-05T13:36:02.094Z,998.14
2017-05-05T13:37:12.374Z,998.16
2017-05-05T13:38:22.660Z,998.15
2017-05-05T13:39:32.640Z,998.1
2017-05-05T13:40:42.610Z,998.12
2017-05-05T13:41:52.906Z,998.06
2017-05-05T13:43:03.220Z,998.05
2017-05-05T13:44:13.514Z,998.18
2017-05-05T13:45:23.804Z,998.18
2017-05-05T13:46:34.095Z,998.29
2017-05-05T13:47:44.379Z,998.31
2017-05-05T13:48:54.359Z,998.38
2017-05-05T13:50:04.659Z,998.34
2017-05-05T13:51:14.632Z,998.16
2017-05-05T13:52:24.920Z,997.38
2017-05-05T13:53:34.896Z,997.18
2017-05-05T13:54:45.189Z,997.04
2017-05-05T13:55:55.484Z,997.08
2017-05-05T13:57:05.457Z,997.15
2017-05-05T13:58:15.427Z,997.32
2017-05-05T13:59:25.114Z,997.32
2017-05-05T14:00:35.088Z,997.37
2017-05-05T14:01:45.059Z,997.45
2017-05-05T14:02:55.057Z,997.45
2017-05-05T14:04:05.336Z,997.6
2017-05-05T14:05:15.627Z,997.72
2017-05-05T14:06:25.909Z,997.86
2017-05-05T14:07:35.877Z,997.88
2017-05-05T14:08:46.165Z,997.95
2017-05-05T14:09:56.449Z,997.94
2017-05-05T14:11:06.727Z,998.14
2017-05-05T14:12:17.010Z,998.34
2017-05-05T14:13:27.299Z,998.54
2017-05-05T14:14:37.584Z,998.68
2017-05-05T14:15:47.866Z,999.63
2017-05-05T14:16:58.146Z,999.87
2017-05-05T14:18:08.121Z,1000.11
2017-05-05T14:19:18.098Z,1000.36